createdAt,value
2018-07-07T00:00:30.318Z,15.10
2018-07-07T00:02:58.982Z,15.10
2018-07-07T00:05:27.714Z,15.10
2018-07-07T00:07:56.397Z,15.00
2018-07-07T00:10:25.074Z,15.00
2018-07-07T00:12:53.819Z,14.90
2018-07-07T00:15:22.706Z,14.90
2018-07-07T00:17:51.495Z,14.90
2018-07-07T00:20:20.493Z,14.90
2018-07-07T00:22:49.167Z,14.80
2018-07-07T00:25:20.954Z,14.90
2018-07-07T00:27:50.234Z,14.80
2018-07-07T00:30:19.409Z,14.80
2018-07-07T00:32:48.172Z,14.80
2018-07-07T00:35:16.875Z,14.80
2018-07-07T00:37:45.595Z,14.80
2018-07-07T00:40:14.354Z,14.70
2018-07-07T00:42:43.067Z,14.80
2018-07-07T00:45:11.746Z,14.80
2018-07-07T00:47:40.539Z,14.80
2018-07-07T00:50:12.370Z,14.70
2018-07-07T00:52:41.047Z,14.70
2018-07-07T00:55:09.713Z,14.70
2018-07-07T00:57:38.446Z,14.60
2018-07-07T01:00:07.209Z,14.60
2018-07-07T01:02:35.914Z,14.60
2018-07-07T01:05:04.701Z,14.60
2018-07-07T01:07:33.378Z,14.60
2018-07-07T01:10:02.066Z,14.60
2018-07-07T01:12:30.741Z,14.60
2018-07-07T01:14:59.459Z,14.60
2018-07-07T01:17:28.190Z,14.60
2018-07-07T01:19:56.931Z,14.50
2018-07-07T01:22:25.600Z,14.50
2018-07-07T01:24:54.290Z,14.50
2018-07-07T01:27:22.961Z,14.50
2018-07-07T01:29:51.673Z,14.50
2018-07-07T01:32:20.349Z,14.40
2018-07-07T01:34:49.085Z,14.40
2018-07-07T01:37:17.765Z,14.40
2018-07-07T01:39:46.482Z,14.40
2018-07-07T01:42:16.169Z,14.40
2018-07-07T01:44:44.907Z,14.40
2018-07-07T01:47:13.615Z,14.30
2018-07-07T01:49:42.304Z,14.30
2018-07-07T01:52:10.953Z,14.30
2018-07-07T01:54:39.664Z,14.30
2018-07-07T01:57:08.593Z,14.30
2018-07-07T01:59:37.321Z,14.20
2018-07-07T02:02:06.042Z,14.20
2018-07-07T02:04:34.737Z,14.20
2018-07-07T02:07:03.472Z,14.20
2018-07-07T02:09:32.161Z,14.10
2018-07-07T02:12:00.824Z,14.10
2018-07-07T02:14:29.531Z,14.20
2018-07-07T02:16:58.190Z,14.20
2018-07-07T02:19:26.958Z,14.10
2018-07-07T02:21:55.883Z,14.10
2018-07-07T02:24:24.572Z,14.10
2018-07-07T02:26:59.375Z,14.10
2018-07-07T02:29:28.066Z,14.10
2018-07-07T02:31:56.751Z,14.20
2018-07-07T02:34:25.437Z,14.10
2018-07-07T02:36:54.134Z,14.20
2018-07-07T02:39:22.822Z,14.20
2018-07-07T02:41:51.537Z,14.20
2018-07-07T02:44:20.236Z,14.20
2018-07-07T02:46:48.929Z,14.20
2018-07-07T02:49:17.626Z,14.30
2018-07-07T02:51:46.326Z,14.30
2018-07-07T02:54:15.015Z,14.30
2018-07-07T02:56:43.767Z,14.30
2018-07-07T02:59:12.482Z,14.30
2018-07-07T03:01:41.138Z,14.40
2018-07-07T03:04:22.087Z,14.40
2018-07-07T03:06:50.786Z,14.40
2018-07-07T03:09:19.538Z,14.40
2018-07-07T03:11:48.329Z,14.40
2018-07-07T03:14:17.014Z,14.40
2018-07-07T03:16:45.790Z,14.40
2018-07-07T03:19:14.524Z,14.40
2018-07-07T03:21:43.251Z,14.30
2018-07-07T03:24:11.928Z,14.30
2018-07-07T03:29:08.958Z,14.30
2018-07-07T03:31:38.190Z,14.30
2018-07-07T03:34:07.003Z,14.30
2018-07-07T03:36:35.767Z,14.20
2018-07-07T03:39:05.222Z,14.20
2018-07-07T03:41:33.934Z,14.20
2018-07-07T03:44:02.679Z,14.20
2018-07-07T03:46:31.406Z,14.30
2018-07-07T03:49:00.083Z,14.30
2018-07-07T03:51:28.793Z,14.30
2018-07-07T03:53:57.464Z,14.40
2018-07-07T03:56:26.138Z,14.50
2018-07-07T03:58:54.886Z,14.60
2018-07-07T04:01:23.532Z,14.60
2018-07-07T04:03:52.234Z,14.70
2018-07-07T04:06:21.317Z,14.70
2018-07-07T04:08:50.000Z,14.70
2018-07-07T04:11:19.668Z,14.80
2018-07-07T04:13:48.344Z,14.80
2018-07-07T04:16:17.050Z,14.80
2018-07-07T04:18:45.757Z,14.90
2018-07-07T04:21:14.415Z,15.00
2018-07-07T04:23:43.155Z,15.00
2018-07-07T04:26:11.881Z,15.00
2018-07-07T04:28:40.685Z,15.00
2018-07-07T04:31:09.390Z,15.10
2018-07-07T04:33:39.120Z,15.10
2018-07-07T04:36:10.924Z,15.20
2018-07-07T04:38:39.582Z,15.30
2018-07-07T04:41:08.252Z,15.30
2018-07-07T04:43:37.006Z,15.30
2018-07-07T04:46:10.598Z,15.30
2018-07-07T04:48:39.377Z,15.30
2018-07-07T04:51:08.041Z,15.40
2018-07-07T04:53:36.698Z,15.40
2018-07-07T04:56:08.900Z,15.40
2018-07-07T04:58:37.574Z,15.50
2018-07-07T05:01:06.388Z,15.50
2018-07-07T05:06:27.869Z,15.60
2018-07-07T05:08:56.511Z,15.60
2018-07-07T05:11:27.244Z,15.70
2018-07-07T05:13:56.055Z,15.90
2018-07-07T05:16:24.744Z,16.10
2018-07-07T05:18:53.502Z,16.30
2018-07-07T05:21:22.187Z,16.60
2018-07-07T05:23:51.198Z,16.80
2018-07-07T05:26:20.391Z,17.00
2018-07-07T05:28:49.071Z,17.10
2018-07-07T05:31:17.769Z,17.20
2018-07-07T05:33:46.458Z,17.30
2018-07-07T05:36:15.186Z,17.30
2018-07-07T05:38:43.879Z,17.30
2018-07-07T05:41:12.605Z,17.40
2018-07-07T05:43:41.314Z,17.80
2018-07-07T05:46:09.998Z,18.50
2018-07-07T05:48:38.763Z,19.10
2018-07-07T05:51:07.453Z,19.70
2018-07-07T05:53:36.166Z,20.30
2018-07-07T05:56:04.976Z,20.60
2018-07-07T05:58:33.686Z,21.00
2018-07-07T06:01:02.413Z,21.40
2018-07-07T06:03:36.582Z,21.60
2018-07-07T06:06:05.706Z,21.70
2018-07-07T06:08:41.323Z,21.80
2018-07-07T06:13:41.565Z,21.40
2018-07-07T06:16:10.332Z,21.50
2018-07-07T06:18:40.016Z,21.40
2018-07-07T06:21:09.011Z,21.00
2018-07-07T06:23:49.365Z,20.40
2018-07-07T06:26:18.131Z,20.40
2018-07-07T06:28:46.877Z,20.50
2018-07-07T06:31:15.550Z,20.40
2018-07-07T06:33:44.317Z,20.00
2018-07-07T06:36:13.738Z,19.90
2018-07-07T06:38:54.239Z,19.80
2018-07-07T06:41:22.897Z,20.00
2018-07-07T06:43:51.667Z,20.20
2018-07-07T06:46:20.425Z,20.30
2018-07-07T06:48:49.173Z,20.30
2018-07-07T06:53:46.303Z,20.70
2018-07-07T06:56:14.926Z,20.60
2018-07-07T06:58:43.707Z,20.70
2018-07-07T07:01:12.389Z,20.40
2018-07-07T07:12:20.367Z,20.60
2018-07-07T07:14:49.098Z,20.90
2018-07-07T07:17:18.291Z,21.10
2018-07-07T07:20:00.411Z,21.20
2018-07-07T07:22:41.000Z,21.30
2018-07-07T07:25:09.710Z,21.30
2018-07-07T07:27:38.471Z,21.40
2018-07-07T07:30:07.810Z,21.50
2018-07-07T07:32:36.550Z,21.50
2018-07-07T07:35:12.023Z,21.50
2018-07-07T07:37:40.786Z,21.50
2018-07-07T07:42:37.912Z,21.60
2018-07-07T07:45:23.992Z,21.50
2018-07-07T07:48:11.081Z,21.50
2018-07-07T07:50:43.257Z,21.50
2018-07-07T07:53:12.078Z,21.00
2018-07-07T07:55:40.782Z,21.20
2018-07-07T07:58:16.908Z,21.40
2018-07-07T08:00:46.386Z,21.50
2018-07-07T08:03:15.133Z,21.60
2018-07-07T08:05:43.825Z,21.80
2018-07-07T08:08:20.154Z,21.90
2018-07-07T08:10:48.825Z,22.00
2018-07-07T08:13:24.615Z,22.00
2018-07-07T08:15:53.296Z,21.90
2018-07-07T08:18:21.983Z,22.20
2018-07-07T08:20:50.678Z,22.00
2018-07-07T08:23:19.423Z,22.00
2018-07-07T08:25:48.234Z,22.10
2018-07-07T08:28:17.881Z,22.20
2018-07-07T08:30:56.891Z,22.40
2018-07-07T08:33:25.605Z,22.50
2018-07-07T08:41:34.265Z,22.30
2018-07-07T08:44:03.015Z,22.60
2018-07-07T08:46:31.784Z,22.80
2018-07-07T08:49:00.506Z,22.80
2018-07-07T08:51:29.216Z,22.80
2018-07-07T08:56:26.221Z,22.60
2018-07-07T08:58:54.953Z,22.40
2018-07-07T09:01:35.942Z,22.40
2018-07-07T09:04:04.728Z,22.70
2018-07-07T09:06:33.486Z,22.60
2018-07-07T09:09:02.223Z,22.80
2018-07-07T09:11:30.961Z,22.90
2018-07-07T09:13:59.643Z,23.10
2018-07-07T09:16:42.537Z,23.40
2018-07-07T09:19:11.220Z,23.50
2018-07-07T09:21:40.000Z,23.60
2018-07-07T09:24:08.696Z,23.90
2018-07-07T09:26:37.399Z,24.20
2018-07-07T09:29:06.140Z,24.40
2018-07-07T09:31:34.866Z,24.40
2018-07-07T09:34:09.340Z,24.60
2018-07-07T09:36:44.503Z,24.20
2018-07-07T09:39:13.209Z,23.90
2018-07-07T09:41:42.057Z,23.80
2018-07-07T09:44:11.189Z,23.60
2018-07-07T09:46:39.890Z,23.40
2018-07-07T09:52:11.946Z,23.80
2018-07-07T09:54:40.617Z,24.00
2018-07-07T09:57:09.330Z,24.20
2018-07-07T09:59:38.146Z,24.20
2018-07-07T10:02:07.266Z,24.50
2018-07-07T10:04:35.953Z,24.70
2018-07-07T10:07:04.694Z,24.40
2018-07-07T10:09:33.479Z,23.90
2018-07-07T10:12:02.233Z,23.70
2018-07-07T10:14:30.953Z,24.20
2018-07-07T10:16:59.660Z,24.50
2018-07-07T10:19:28.356Z,24.70
2018-07-07T10:21:57.260Z,24.30
2018-07-07T10:24:25.941Z,24.30
2018-07-07T10:26:54.647Z,24.40
2018-07-07T10:32:35.500Z,24.60
2018-07-07T10:35:04.255Z,24.80
2018-07-07T10:37:48.996Z,24.90
2018-07-07T10:43:15.594Z,24.70
2018-07-07T10:45:44.413Z,24.60
2018-07-07T10:48:13.065Z,24.40
2018-07-07T10:50:41.839Z,24.30
2018-07-07T10:53:10.594Z,24.30
2018-07-07T10:55:39.300Z,24.40
2018-07-07T10:58:07.997Z,24.60
2018-07-07T11:00:36.716Z,24.80
2018-07-07T11:03:05.495Z,24.50
2018-07-07T11:05:34.199Z,24.50
2018-07-07T11:08:03.162Z,24.50
2018-07-07T11:16:17.363Z,24.80
2018-07-07T11:18:46.194Z,25.00
2018-07-07T11:21:14.939Z,25.50
2018-07-07T11:23:43.627Z,26.00
2018-07-07T11:26:13.416Z,25.80
2018-07-07T11:28:42.154Z,24.80
2018-07-07T11:31:11.096Z,24.30
2018-07-07T11:33:46.895Z,24.40
2018-07-07T11:36:15.845Z,24.60
2018-07-07T11:38:45.433Z,24.90
2018-07-07T11:41:21.199Z,25.10
2018-07-07T11:43:50.695Z,25.30
2018-07-07T11:46:19.796Z,25.30
2018-07-07T11:48:51.699Z,25.70
2018-07-07T11:51:20.662Z,25.90
2018-07-07T11:54:05.709Z,26.00
2018-07-07T11:56:34.670Z,26.20
2018-07-07T11:59:04.118Z,25.80
2018-07-07T12:01:33.068Z,25.60
2018-07-07T12:04:01.973Z,25.10
2018-07-07T12:06:31.094Z,24.90
2018-07-07T12:12:04.849Z,24.90
2018-07-07T12:14:33.700Z,24.90
2018-07-07T12:17:02.383Z,25.00
2018-07-07T12:19:31.126Z,25.10
2018-07-07T12:21:59.842Z,25.00
2018-07-07T12:24:32.750Z,25.40
2018-07-07T12:27:01.435Z,25.70
2018-07-07T12:29:30.117Z,25.90
2018-07-07T12:31:58.869Z,26.10
2018-07-07T12:36:55.906Z,25.50
2018-07-07T12:39:24.638Z,25.40
2018-07-07T12:41:53.355Z,25.30
2018-07-07T12:44:22.104Z,25.30
2018-07-07T12:46:50.885Z,25.50
2018-07-07T12:49:22.682Z,25.80
2018-07-07T12:51:51.385Z,26.00
2018-07-07T12:54:20.062Z,25.80
2018-07-07T12:56:48.797Z,25.40
2018-07-07T13:01:45.819Z,25.90
2018-07-07T13:04:14.503Z,26.20
2018-07-07T13:06:43.219Z,25.80
2018-07-07T13:09:11.962Z,26.00
2018-07-07T13:11:40.673Z,26.10
2018-07-07T13:14:09.395Z,25.90
2018-07-07T13:16:38.077Z,26.00
2018-07-07T13:21:37.150Z,25.80
2018-07-07T13:24:06.293Z,25.50
2018-07-07T13:26:34.980Z,25.50
2018-07-07T13:29:03.839Z,25.60
2018-07-07T13:31:36.270Z,25.30
2018-07-07T13:34:05.016Z,25.30
2018-07-07T13:36:33.703Z,25.20
2018-07-07T13:39:16.344Z,25.40
2018-07-07T13:41:45.177Z,25.80
2018-07-07T13:44:18.226Z,25.80
2018-07-07T13:46:52.305Z,25.80
2018-07-07T13:49:21.131Z,25.90
2018-07-07T13:52:02.586Z,25.90
2018-07-07T13:57:11.812Z,25.80
2018-07-07T13:59:50.589Z,25.90
2018-07-07T14:02:19.371Z,26.00
2018-07-07T14:04:48.030Z,26.30
2018-07-07T14:07:26.182Z,26.20
2018-07-07T14:09:54.927Z,26.50
2018-07-07T14:12:24.020Z,26.80
2018-07-07T14:14:52.756Z,27.20
2018-07-07T14:17:21.792Z,27.50
2018-07-07T14:19:50.574Z,27.50
2018-07-07T14:22:19.253Z,27.20
2018-07-07T14:28:03.760Z,27.10
2018-07-07T14:30:32.574Z,26.90
2018-07-07T14:33:11.594Z,27.00
2018-07-07T14:38:41.205Z,27.40
2018-07-07T14:41:14.893Z,27.40
2018-07-07T14:44:02.512Z,27.60
2018-07-07T14:46:31.942Z,27.90
2018-07-07T14:49:00.646Z,28.00
2018-07-07T14:51:29.360Z,27.40
2018-07-07T14:53:58.054Z,27.20
2018-07-07T14:56:28.447Z,27.20
2018-07-07T14:58:57.168Z,27.20
2018-07-07T15:01:25.874Z,27.40
2018-07-07T15:03:54.578Z,27.50
2018-07-07T15:06:23.323Z,27.70
2018-07-07T15:08:52.042Z,27.50
2018-07-07T15:11:20.790Z,27.30
2018-07-07T15:13:49.466Z,27.50
2018-07-07T15:16:18.152Z,27.60
2018-07-07T15:18:46.853Z,27.50
2018-07-07T15:21:15.529Z,27.60
2018-07-07T15:29:30.422Z,26.70
2018-07-07T15:31:59.109Z,26.90
2018-07-07T15:34:27.802Z,27.00
2018-07-07T15:36:56.537Z,26.60
2018-07-07T15:39:25.214Z,26.50
2018-07-07T15:41:53.969Z,26.80
2018-07-07T15:44:22.699Z,27.20
2018-07-07T15:46:51.386Z,27.30
2018-07-07T15:49:20.138Z,27.80
2018-07-07T15:51:48.850Z,28.00
2018-07-07T15:54:17.853Z,27.70
2018-07-07T15:56:46.625Z,27.50
2018-07-07T15:59:15.338Z,27.60
2018-07-07T16:01:44.174Z,27.80
2018-07-07T16:04:12.907Z,27.70
2018-07-07T16:06:41.666Z,27.30
2018-07-07T16:09:10.329Z,26.80
2018-07-07T16:11:38.996Z,26.90
2018-07-07T16:14:07.798Z,27.00
2018-07-07T16:16:36.490Z,27.00
2018-07-07T16:19:05.206Z,26.90
2018-07-07T16:21:33.919Z,27.10
2018-07-07T16:24:02.591Z,27.40
2018-07-07T16:26:31.293Z,27.40
2018-07-07T16:29:00.429Z,27.60
2018-07-07T16:31:29.173Z,27.40
2018-07-07T16:36:48.444Z,27.30
2018-07-07T16:41:45.966Z,26.80
2018-07-07T16:44:32.627Z,27.20
2018-07-07T16:47:19.210Z,27.30
2018-07-07T16:49:48.134Z,27.50
2018-07-07T16:52:27.372Z,27.50
2018-07-07T16:54:56.183Z,27.40
2018-07-07T16:57:25.779Z,27.80
2018-07-07T16:59:55.638Z,28.00
2018-07-07T17:02:24.379Z,27.90
2018-07-07T17:04:53.162Z,27.70
2018-07-07T17:07:21.971Z,27.30
2018-07-07T17:09:50.742Z,27.00
2018-07-07T17:12:19.578Z,27.00
2018-07-07T17:14:48.367Z,26.90
2018-07-07T17:17:17.092Z,26.80
2018-07-07T17:19:53.313Z,26.70
2018-07-07T17:22:22.175Z,26.30
2018-07-07T17:24:53.344Z,26.10
2018-07-07T17:27:22.449Z,25.80
2018-07-07T17:32:41.621Z,25.40
2018-07-07T17:35:10.712Z,25.20
2018-07-07T17:37:40.288Z,25.20
2018-07-07T17:40:09.961Z,25.10
2018-07-07T17:42:43.000Z,25.10
2018-07-07T17:45:11.898Z,25.00
2018-07-07T17:47:40.793Z,25.00
2018-07-07T17:50:09.517Z,24.80
2018-07-07T17:52:38.366Z,24.70
2018-07-07T17:55:07.991Z,24.60
2018-07-07T17:57:52.726Z,24.50
2018-07-07T18:00:22.045Z,24.40
2018-07-07T18:02:50.962Z,24.20
2018-07-07T18:05:20.283Z,24.00
2018-07-07T18:07:48.993Z,23.90
2018-07-07T18:10:17.680Z,23.70
2018-07-07T18:12:46.368Z,23.60
2018-07-07T18:15:15.069Z,23.50
2018-07-07T18:17:43.814Z,23.40
2018-07-07T18:20:12.486Z,23.30
2018-07-07T18:22:42.622Z,23.20
2018-07-07T18:25:11.321Z,23.00
2018-07-07T18:27:40.023Z,22.90
2018-07-07T18:30:08.761Z,22.80
2018-07-07T18:32:37.461Z,22.70
2018-07-07T18:37:34.593Z,22.60
2018-07-07T18:40:03.387Z,22.50
2018-07-07T18:42:48.092Z,22.50
2018-07-07T18:45:17.052Z,22.30
2018-07-07T18:47:45.790Z,22.20
2018-07-07T18:50:21.247Z,22.10
2018-07-07T18:52:50.197Z,22.00
2018-07-07T18:57:55.183Z,21.80
2018-07-07T19:00:27.605Z,21.80
2018-07-07T19:02:56.388Z,21.70
2018-07-07T19:05:25.124Z,21.60
2018-07-07T19:07:53.843Z,21.50
2018-07-07T19:10:29.555Z,21.40
2018-07-07T19:12:58.326Z,21.40
2018-07-07T19:15:28.090Z,21.40
2018-07-07T19:17:58.819Z,21.40
2018-07-07T19:20:32.976Z,21.40
2018-07-07T19:25:45.966Z,21.30
2018-07-07T19:28:14.630Z,21.40
2018-07-07T19:30:46.926Z,21.40
2018-07-07T19:33:20.889Z,21.40
2018-07-07T19:35:54.862Z,21.40
2018-07-07T19:38:29.954Z,21.40
2018-07-07T19:41:08.450Z,21.40
2018-07-07T19:43:38.149Z,21.40
2018-07-07T19:46:06.903Z,21.40
2018-07-07T19:48:45.664Z,21.30
2018-07-07T19:51:14.583Z,21.30
2018-07-07T19:53:59.945Z,21.30
2018-07-07T19:59:25.016Z,21.20
2018-07-07T20:01:53.843Z,21.10
2018-07-07T20:04:28.109Z,21.10
2018-07-07T20:07:00.056Z,21.10
2018-07-07T20:14:23.172Z,21.10
2018-07-07T20:17:09.069Z,21.00
2018-07-07T20:20:58.256Z,20.90
2018-07-07T20:23:28.359Z,20.90
2018-07-07T20:26:01.775Z,20.80
2018-07-07T20:28:41.058Z,20.70
2018-07-07T20:31:09.826Z,20.70
2018-07-07T20:33:38.610Z,20.70
2018-07-07T20:36:07.496Z,20.60
2018-07-07T20:38:36.471Z,20.60
2018-07-07T20:41:06.304Z,20.60
2018-07-07T20:43:35.110Z,20.60
2018-07-07T20:46:03.886Z,20.60
2018-07-07T20:48:32.598Z,20.60
2018-07-07T20:51:01.325Z,20.60
2018-07-07T20:53:30.137Z,20.60
2018-07-07T20:55:58.920Z,20.50
2018-07-07T20:58:28.089Z,20.50
2018-07-07T21:00:56.777Z,20.40
2018-07-07T21:06:36.636Z,20.40
2018-07-07T21:14:49.230Z,20.30
2018-07-07T21:17:18.922Z,20.30
2018-07-07T21:19:47.703Z,20.20
2018-07-07T21:24:44.701Z,19.90
2018-07-07T21:27:13.430Z,19.80
2018-07-07T21:29:42.121Z,19.70
2018-07-07T21:32:10.905Z,19.70
2018-07-07T21:34:39.895Z,19.60
2018-07-07T21:37:08.670Z,19.50
2018-07-07T21:39:44.874Z,19.40
2018-07-07T21:42:13.613Z,19.30
2018-07-07T21:44:42.445Z,19.20
2018-07-07T21:47:12.904Z,19.10
2018-07-07T21:49:41.855Z,19.10
2018-07-07T21:52:11.828Z,19.00
2018-07-07T21:54:40.691Z,18.90
2018-07-07T21:59:44.094Z,18.80
2018-07-07T22:06:12.950Z,18.70
2018-07-07T22:08:42.121Z,18.70
2018-07-07T22:11:12.141Z,18.50
2018-07-07T22:13:42.977Z,18.50
2018-07-07T22:16:12.267Z,18.50
2018-07-07T22:18:41.724Z,18.50
2018-07-07T22:21:21.914Z,18.50
2018-07-07T22:23:52.430Z,18.40
2018-07-07T22:26:21.155Z,18.40
2018-07-07T22:28:51.081Z,18.40
2018-07-07T22:31:19.842Z,18.30
2018-07-07T22:33:49.835Z,18.30
2018-07-07T22:36:24.113Z,18.30
2018-07-07T22:38:56.990Z,18.30
2018-07-07T22:41:40.732Z,18.20
2018-07-07T22:44:10.103Z,18.10
2018-07-07T22:46:39.729Z,18.00
2018-07-07T22:49:08.414Z,18.00
2018-07-07T22:51:37.548Z,17.90
2018-07-07T22:54:07.273Z,17.80
2018-07-07T22:56:36.159Z,17.80
2018-07-07T22:59:08.374Z,17.70
2018-07-07T23:01:37.476Z,17.70
2018-07-07T23:04:08.275Z,17.60
2018-07-07T23:06:41.404Z,17.60
2018-07-07T23:09:12.748Z,17.60
2018-07-07T23:11:43.946Z,17.60
2018-07-07T23:14:12.690Z,17.50
2018-07-07T23:16:41.541Z,17.50
2018-07-07T23:19:10.293Z,17.50
2018-07-07T23:21:38.982Z,17.40
2018-07-07T23:24:07.723Z,17.40
2018-07-07T23:26:36.424Z,17.40
2018-07-07T23:29:05.441Z,17.30
2018-07-07T23:31:34.173Z,17.30
2018-07-07T23:34:03.638Z,17.30
2018-07-07T23:36:32.482Z,17.20
2018-07-07T23:39:01.194Z,17.20
2018-07-07T23:41:29.904Z,17.20
2018-07-07T23:43:58.639Z,17.20
2018-07-07T23:46:27.342Z,17.10
2018-07-07T23:48:56.054Z,17.10
2018-07-07T23:51:25.385Z,17.00
2018-07-07T23:53:54.142Z,17.00
2018-07-07T23:56:22.892Z,17.00
2018-07-07T23:58:51.904Z,17.00
